Time;durP1;ratioP1;P1;durP2;ratioP2;P2;SDS_P1;SDS_P2;PMS_P1;PMS_P2;Temp;Humidity;BMP_temperature;BMP_pressure;BME280_temperature;BME280_humidity;BME280_pressure;Samples;Min_cycle;Max_cycle;Signal;HPM_P1;HPM_P2
2022/09/08 00:00:30;;;;;;;7.07;3.90;;;17.10;99.90;;;;;;5108229;28;20050;-81
2022/09/08 00:02:58;;;;;;;8.65;3.90;;;17.00;99.90;;;;;;5114410;28;20521;-81
2022/09/08 00:05:26;;;;;;;7.50;4.60;;;17.00;99.90;;;;;;5111781;28;20493;-80
2022/09/08 00:07:53;;;;;;;7.72;4.38;;;17.00;99.90;;;;;;5107574;28;20044;-81
2022/09/08 00:10:19;;;;;;;5.97;4.30;;;16.90;99.90;;;;;;5108587;28;20071;-81
2022/09/08 00:12:47;;;;;;;6.57;5.25;;;16.90;99.90;;;;;;5093351;28;20044;-80
2022/09/08 00:15:14;;;;;;;7.68;5.28;;;16.90;99.90;;;;;;5100036;28;20451;-80
2022/09/08 00:17:40;;;;;;;9.55;5.50;;;16.90;99.90;;;;;;5108432;28;20544;-81
2022/09/08 00:20:07;;;;;;;11.18;6.38;;;16.90;99.90;;;;;;5108771;28;20124;-80
2022/09/08 00:22:33;;;;;;;9.52;6.53;;;16.90;99.90;;;;;;5111336;28;20028;-79
2022/09/08 00:24:58;;;;;;;9.13;6.90;;;16.90;99.90;;;;;;5106317;28;20043;-81
2022/09/08 00:27:24;;;;;;;11.63;8.10;;;17.00;99.90;;;;;;5108723;28;20114;-80
2022/09/08 00:29:50;;;;;;;10.65;9.15;;;17.00;99.90;;;;;;5094726;28;20040;-81
2022/09/08 00:32:15;;;;;;;12.20;7.90;;;17.00;99.90;;;;;;5109640;28;20044;-80
2022/09/08 00:34:41;;;;;;;10.35;8.98;;;17.00;99.90;;;;;;5112292;28;20453;-80
2022/09/08 00:37:06;;;;;;;12.77;9.55;;;17.00;99.90;;;;;;5111261;28;20027;-81
2022/09/08 00:39:32;;;;;;;10.55;8.73;;;17.00;99.90;;;;;;5092248;28;20553;-81
2022/09/08 00:41:58;;;;;;;15.50;10.40;;;17.00;99.90;;;;;;5109557;28;20035;-80
2022/09/08 00:44:51;;;;;;;13.63;10.98;;;17.00;99.90;;;;;;5101858;28;20412;-81
2022/09/08 00:47:22;;;;;;;16.40;11.05;;;17.00;99.90;;;;;;5084736;28;20066;-80
2022/09/08 00:49:54;;;;;;;13.20;10.75;;;17.00;99.90;;;;;;5086491;28;20047;-80
2022/09/08 00:52:20;;;;;;;14.23;11.55;;;17.00;99.90;;;;;;5109773;28;20044;-81
2022/09/08 00:54:48;;;;;;;16.48;12.50;;;17.00;99.90;;;;;;5110163;28;20047;-82
2022/09/08 00:57:14;;;;;;;19.88;12.27;;;17.00;99.90;;;;;;5106584;28;20766;-80
2022/09/08 00:59:40;;;;;;;13.18;11.60;;;17.00;99.90;;;;;;5111244;28;20081;-81
2022/09/08 01:02:22;;;;;;;14.63;11.70;;;16.90;99.90;;;;;;5105841;28;20059;-80
2022/09/08 01:04:48;;;;;;;14.85;12.90;;;16.90;99.90;;;;;;5106427;28;20039;-80
2022/09/08 01:13:23;;;;;;;18.25;14.05;;;16.80;99.90;;;;;;5106683;28;20417;-79
2022/09/08 01:15:49;;;;;;;16.40;13.88;;;16.80;99.90;;;;;;5104638;28;20032;-81
2022/09/08 01:18:14;;;;;;;17.88;14.85;;;16.80;99.90;;;;;;5104545;28;20106;-80
2022/09/08 01:20:44;;;;;;;21.05;15.65;;;16.80;99.90;;;;;;5111896;28;20382;-80
2022/09/08 01:23:19;;;;;;;20.73;16.15;;;16.80;99.90;;;;;;5111574;28;20036;-80
2022/09/08 01:26:28;;;;;;;20.30;16.25;;;16.80;99.90;;;;;;5101941;28;20038;-80
2022/09/08 01:28:59;;;;;;;20.30;16.55;;;16.80;99.90;;;;;;5102142;28;20055;-80
2022/09/08 01:31:26;;;;;;;24.40;18.10;;;16.80;99.90;;;;;;5111231;28;20104;-81
2022/09/08 01:33:51;;;;;;;22.25;18.52;;;16.80;99.90;;;;;;5098419;28;20039;-80
2022/09/08 01:36:18;;;;;;;22.88;17.95;;;16.80;99.90;;;;;;5102598;28;20409;-80
2022/09/08 01:38:44;;;;;;;22.95;19.77;;;16.90;99.90;;;;;;5107053;28;20097;-80
2022/09/08 01:41:10;;;;;;;25.02;19.45;;;16.80;99.90;;;;;;5109732;28;20040;-81
2022/09/08 01:43:36;;;;;;;24.25;20.48;;;16.80;99.90;;;;;;5108890;28;20049;-80
2022/09/08 01:46:01;;;;;;;26.55;21.83;;;16.80;99.90;;;;;;5110554;28;20058;-79
2022/09/08 01:48:27;;;;;;;25.98;21.58;;;16.80;99.90;;;;;;5109064;28;20040;-80
2022/09/08 01:50:59;;;;;;;30.00;22.60;;;16.80;99.90;;;;;;5101891;28;20035;-79
2022/09/08 01:53:25;;;;;;;26.90;23.17;;;16.80;99.90;;;;;;5104830;28;20036;-80
2022/09/08 01:55:50;;;;;;;27.25;23.73;;;16.80;99.90;;;;;;5104252;28;20481;-80
2022/09/08 01:58:16;;;;;;;29.38;24.75;;;16.80;99.90;;;;;;5108662;28;20084;-80
2022/09/08 02:00:42;;;;;;;28.48;25.40;;;16.80;99.90;;;;;;5106633;28;20047;-80
2022/09/08 02:03:09;;;;;;;32.95;26.58;;;16.90;99.90;;;;;;5111951;28;20059;-80
2022/09/08 02:05:38;;;;;;;31.80;25.65;;;16.90;99.90;;;;;;5091876;28;20036;-79
2022/09/08 02:08:03;;;;;;;29.75;25.40;;;16.90;99.90;;;;;;5108019;28;20088;-81
2022/09/08 02:10:29;;;;;;;31.20;24.90;;;17.00;99.90;;;;;;5104237;28;20039;-80
2022/09/08 02:12:54;;;;;;;30.08;26.10;;;17.00;99.90;;;;;;5109515;28;20044;-80
2022/09/08 02:15:20;;;;;;;30.02;25.92;;;17.00;99.90;;;;;;5109426;28;20047;-79
2022/09/08 02:17:45;;;;;;;34.42;26.83;;;17.10;99.90;;;;;;5110173;28;20047;-80
2022/09/08 02:20:11;;;;;;;33.80;26.60;;;17.10;99.90;;;;;;5107295;28;20063;-80
2022/09/08 02:22:36;;;;;;;32.42;27.65;;;17.10;99.90;;;;;;5105450;28;20089;-80
2022/09/08 02:25:02;;;;;;;31.45;27.45;;;17.10;99.90;;;;;;5091020;28;20044;-80
2022/09/08 02:27:28;;;;;;;30.98;27.10;;;17.10;99.90;;;;;;5074816;28;20031;-81
2022/09/08 02:29:53;;;;;;;30.90;27.60;;;17.10;99.90;;;;;;5110639;28;20455;-80
2022/09/08 02:32:19;;;;;;;30.38;27.10;;;17.10;99.90;;;;;;5103821;28;20066;-80
2022/09/08 02:34:44;;;;;;;33.17;28.05;;;17.10;99.90;;;;;;5103862;28;20036;-80
2022/09/08 02:37:10;;;;;;;32.03;28.50;;;17.20;99.90;;;;;;5091090;28;20493;-80
2022/09/08 02:39:35;;;;;;;32.33;27.95;;;17.20;99.90;;;;;;5074113;28;20044;-81
2022/09/08 02:42:01;;;;;;;35.15;29.58;;;17.20;99.90;;;;;;5100879;28;20035;-80
2022/09/08 02:44:27;;;;;;;36.63;29.38;;;17.20;99.90;;;;;;5103372;28;20703;-81
2022/09/08 02:46:52;;;;;;;32.45;28.30;;;17.20;99.90;;;;;;5104225;28;20043;-81
2022/09/08 02:49:18;;;;;;;34.10;28.63;;;17.30;99.90;;;;;;5107523;28;20036;-79
2022/09/08 02:51:43;;;;;;;33.03;28.42;;;17.30;99.90;;;;;;5111246;28;20032;-80
2022/09/08 02:54:09;;;;;;;34.55;29.67;;;17.30;99.90;;;;;;5101604;28;20040;-80
2022/09/08 02:56:35;;;;;;;35.45;28.70;;;17.30;99.90;;;;;;5101561;28;20039;-79
2022/09/08 02:59:00;;;;;;;34.75;30.00;;;17.30;99.90;;;;;;5080704;28;20931;-80
2022/09/08 03:01:26;;;;;;;34.47;28.40;;;17.30;99.90;;;;;;5107107;28;20082;-80
2022/09/08 03:03:52;;;;;;;33.38;28.20;;;17.30;99.90;;;;;;5110771;28;20071;-80
2022/09/08 03:06:18;;;;;;;34.42;29.13;;;17.30;99.90;;;;;;5110886;28;20612;-81
2022/09/08 03:08:43;;;;;;;36.53;30.35;;;17.30;99.90;;;;;;5095930;28;20050;-80
2022/09/08 03:11:09;;;;;;;34.15;28.95;;;17.30;99.90;;;;;;5111157;28;20044;-80
2022/09/08 03:13:35;;;;;;;36.08;29.58;;;17.30;99.90;;;;;;5109135;28;20032;-80
2022/09/08 03:16:02;;;;;;;35.95;30.90;;;17.30;99.90;;;;;;5101880;28;20036;-80
2022/09/08 03:18:28;;;;;;;36.67;30.17;;;17.40;99.90;;;;;;5099838;28;20035;-81
2022/09/08 03:21:04;;;;;;;33.65;29.40;;;17.30;99.90;;;;;;5110976;28;20043;-80
2022/09/08 03:23:31;;;;;;;33.63;29.58;;;17.30;99.90;;;;;;5104412;28;20032;-81
2022/09/08 03:26:04;;;;;;;36.60;30.00;;;17.30;99.90;;;;;;5107497;28;20048;-81
2022/09/08 03:28:30;;;;;;;37.03;30.70;;;17.30;99.90;;;;;;5107053;28;20085;-80
2022/09/08 03:30:56;;;;;;;35.92;30.42;;;17.30;99.90;;;;;;5107016;28;20073;-80
2022/09/08 03:33:22;;;;;;;33.30;29.73;;;17.30;99.90;;;;;;5112052;28;20070;-81
2022/09/08 03:35:48;;;;;;;36.50;30.65;;;17.30;99.90;;;;;;5113885;28;20042;-81
2022/09/08 03:38:15;;;;;;;36.40;30.77;;;17.30;99.90;;;;;;5096365;28;20413;-80
2022/09/08 03:40:41;;;;;;;35.53;30.08;;;17.30;99.90;;;;;;5106491;28;20033;-80
2022/09/08 03:43:07;;;;;;;34.58;30.00;;;17.30;99.90;;;;;;5107459;28;20044;-80
2022/09/08 03:45:33;;;;;;;33.75;30.08;;;17.30;99.90;;;;;;5105416;28;20047;-80
2022/09/08 03:47:59;;;;;;;36.78;30.05;;;17.20;99.90;;;;;;5096994;28;20817;-80
2022/09/08 03:50:25;;;;;;;39.92;31.65;;;17.20;99.90;;;;;;5109708;28;20382;-80
2022/09/08 03:52:50;;;;;;;38.03;32.22;;;17.20;99.90;;;;;;5114604;28;20073;-81
2022/09/08 03:55:16;;;;;;;40.63;33.53;;;17.20;99.90;;;;;;5111278;28;20044;-80
2022/09/08 03:57:41;;;;;;;37.90;32.28;;;17.20;99.90;;;;;;5093151;28;20108;-81
2022/09/08 04:00:09;;;;;;;42.13;34.45;;;17.20;99.90;;;;;;5109102;28;20158;-81
2022/09/08 04:02:35;;;;;;;41.13;33.28;;;17.20;99.90;;;;;;5112729;28;20528;-82
2022/09/08 04:05:01;;;;;;;42.50;33.55;;;17.20;99.90;;;;;;5098129;28;20044;-81
2022/09/08 04:07:29;;;;;;;41.67;33.92;;;17.20;99.90;;;;;;5092963;28;20039;-81
2022/09/08 04:09:56;;;;;;;42.03;34.47;;;17.20;99.90;;;;;;5110153;28;20501;-81
2022/09/08 04:12:23;;;;;;;41.28;34.67;;;17.20;99.90;;;;;;5109196;28;20043;-81
2022/09/08 04:14:50;;;;;;;43.45;35.78;;;17.20;99.90;;;;;;5112329;28;20501;-80
2022/09/08 04:17:17;;;;;;;43.97;35.30;;;17.20;99.90;;;;;;5113473;28;20035;-81
2022/09/08 04:19:43;;;;;;;45.17;36.72;;;17.20;99.90;;;;;;5094811;28;20038;-80
2022/09/08 04:22:08;;;;;;;49.63;36.92;;;17.20;99.90;;;;;;5092951;28;20035;-80
2022/09/08 04:24:34;;;;;;;46.75;37.08;;;17.20;99.90;;;;;;5111794;28;20501;-80
2022/09/08 04:27:00;;;;;;;46.72;36.30;;;17.20;99.90;;;;;;5110531;28;20378;-80
2022/09/08 04:29:26;;;;;;;45.65;38.35;;;17.20;99.90;;;;;;5105376;28;20043;-80
2022/09/08 04:31:51;;;;;;;48.78;37.78;;;17.20;99.90;;;;;;5112593;28;20040;-80
2022/09/08 04:34:17;;;;;;;43.90;36.47;;;17.20;99.90;;;;;;5108682;28;20082;-79
2022/09/08 04:36:43;;;;;;;49.17;39.08;;;17.20;99.90;;;;;;5103856;28;20028;-80
2022/09/08 04:39:10;;;;;;;48.95;39.30;;;17.20;99.90;;;;;;5110463;28;20443;-79
2022/09/08 04:41:36;;;;;;;50.88;38.33;;;17.20;99.90;;;;;;5095093;28;20453;-81
2022/09/08 04:44:03;;;;;;;48.58;38.78;;;17.20;99.90;;;;;;5109035;28;20036;-81
2022/09/08 04:46:30;;;;;;;48.30;40.22;;;17.20;99.90;;;;;;5090388;28;20108;-81
2022/09/08 04:48:56;;;;;;;49.15;40.10;;;17.10;99.90;;;;;;5091249;28;20054;-80
2022/09/08 04:51:23;;;;;;;46.58;38.40;;;17.10;99.90;;;;;;5106647;28;20051;-80
2022/09/08 04:53:51;;;;;;;49.97;38.88;;;17.10;99.90;;;;;;5089342;28;20070;-81
2022/09/08 04:56:18;;;;;;;47.35;39.80;;;17.10;99.90;;;;;;5101888;28;20035;-81
2022/09/08 04:58:45;;;;;;;46.45;38.58;;;17.10;99.90;;;;;;5112969;28;20027;-81
2022/09/08 05:01:13;;;;;;;51.00;40.30;;;17.10;99.90;;;;;;5108661;28;20143;-81
2022/09/08 05:03:40;;;;;;;48.65;39.85;;;17.10;99.90;;;;;;5102832;28;20036;-80
2022/09/08 05:06:14;;;;;;;45.17;38.08;;;17.10;99.90;;;;;;5085077;28;20047;-80
2022/09/08 05:08:45;;;;;;;44.60;36.97;;;17.10;99.90;;;;;;5088307;28;20044;-79
2022/09/08 05:11:11;;;;;;;44.78;36.95;;;17.10;99.90;;;;;;5110112;28;20115;-80
2022/09/08 05:13:36;;;;;;;47.88;38.92;;;17.10;99.90;;;;;;5094580;28;20131;-80
2022/09/08 05:16:04;;;;;;;48.78;39.55;;;17.20;99.90;;;;;;5109081;28;20580;-80
2022/09/08 05:18:29;;;;;;;51.00;37.53;;;17.20;99.90;;;;;;5107722;28;20393;-80
2022/09/08 05:20:56;;;;;;;47.50;37.33;;;17.20;99.90;;;;;;5105706;28;20040;-80
2022/09/08 05:23:21;;;;;;;43.72;35.50;;;17.20;99.90;;;;;;5091236;28;20066;-79
2022/09/08 05:25:55;;;;;;;43.63;35.55;;;17.30;99.90;;;;;;5101467;28;20071;-80
2022/09/08 05:28:21;;;;;;;46.10;38.00;;;17.30;99.90;;;;;;5106907;28;20062;-80
2022/09/08 05:30:47;;;;;;;46.08;37.95;;;17.30;99.90;;;;;;5111875;28;20126;-80
2022/09/08 05:33:12;;;;;;;46.47;37.78;;;17.30;99.90;;;;;;5094765;28;20047;-79
2022/09/08 05:35:38;;;;;;;45.70;37.03;;;17.20;99.90;;;;;;5103178;28;20043;-80
2022/09/08 05:38:03;;;;;;;44.20;37.33;;;17.20;99.90;;;;;;5112583;28;20047;-80
2022/09/08 05:40:29;;;;;;;47.38;38.38;;;17.10;99.90;;;;;;5098126;28;20028;-79
2022/09/08 05:42:54;;;;;;;42.17;35.33;;;17.10;99.90;;;;;;5091150;28;20129;-79
2022/09/08 05:45:20;;;;;;;43.85;35.63;;;17.10;99.90;;;;;;5105073;28;20036;-79
2022/09/08 05:47:45;;;;;;;42.58;35.33;;;17.10;99.90;;;;;;5092088;28;20745;-80
2022/09/08 05:50:11;;;;;;;42.65;35.78;;;17.10;99.90;;;;;;5110193;28;20039;-79
2022/09/08 05:52:36;;;;;;;45.08;37.03;;;17.20;99.90;;;;;;5114503;28;20050;-79
2022/09/08 05:55:02;;;;;;;48.20;37.83;;;17.20;99.90;;;;;;5110973;28;20067;-79
2022/09/08 05:57:28;;;;;;;41.17;33.97;;;17.30;99.90;;;;;;5103059;28;20115;-79
2022/09/08 05:59:53;;;;;;;36.03;32.00;;;17.30;99.90;;;;;;5091474;28;20036;-79
2022/09/08 06:02:19;;;;;;;39.45;32.33;;;17.30;99.90;;;;;;5097108;28;20133;-79
2022/09/08 06:04:44;;;;;;;42.20;35.22;;;17.40;99.90;;;;;;5109035;28;20545;-80
2022/09/08 06:07:10;;;;;;;42.55;35.20;;;17.40;99.90;;;;;;5103263;28;20039;-80
2022/09/08 06:09:35;;;;;;;39.42;33.97;;;17.40;99.90;;;;;;5098050;28;20063;-80
2022/09/08 06:12:02;;;;;;;40.00;33.97;;;17.40;99.90;;;;;;5109101;28;20044;-80
2022/09/08 06:14:27;;;;;;;40.75;33.50;;;17.50;99.90;;;;;;5074196;28;20490;-80
2022/09/08 06:16:53;;;;;;;43.97;35.45;;;17.50;99.90;;;;;;5105378;28;20043;-80
2022/09/08 06:19:19;;;;;;;38.42;32.60;;;17.50;99.90;;;;;;5091962;28;20089;-80
2022/09/08 06:21:44;;;;;;;40.33;32.88;;;17.50;99.90;;;;;;5092278;28;20389;-80
2022/09/08 06:24:13;;;;;;;41.55;33.55;;;17.50;99.90;;;;;;5090893;28;20039;-80
2022/09/08 06:26:58;;;;;;;42.08;34.70;;;17.40;99.90;;;;;;5109293;28;20036;-79
2022/09/08 06:29:24;;;;;;;38.58;32.47;;;17.50;99.90;;;;;;5102475;28;20508;-80
2022/09/08 06:32:20;;;;;;;47.95;37.60;;;17.40;99.90;;;;;;5111076;28;20040;-81
2022/09/08 06:34:55;;;;;;;45.88;37.30;;;17.40;99.90;;;;;;5090207;28;20054;-80
2022/09/08 06:37:38;;;;;;;47.17;37.70;;;17.30;99.90;;;;;;5091542;28;20059;-80
2022/09/08 06:40:29;;;;;;;46.72;38.13;;;17.30;99.90;;;;;;5093106;28;20085;-80
2022/09/08 06:43:21;;;;;;;45.47;37.65;;;17.30;99.90;;;;;;5101531;28;20512;-81
2022/09/08 06:45:50;;;;;;;45.50;38.33;;;17.30;99.90;;;;;;5104155;28;20050;-80
2022/09/08 06:48:15;;;;;;;49.42;37.05;;;17.30;99.90;;;;;;5107555;28;20039;-78
2022/09/08 06:50:55;;;;;;;44.55;36.83;;;17.30;99.90;;;;;;5107197;28;20042;-79
2022/09/08 06:53:26;;;;;;;44.65;36.50;;;17.30;99.90;;;;;;5107978;28;20058;-79
2022/09/08 06:55:57;;;;;;;46.53;39.28;;;17.30;99.90;;;;;;5087703;28;20044;-81
2022/09/08 06:58:28;;;;;;;46.78;37.88;;;17.30;99.90;;;;;;5098061;28;20036;-80
2022/09/08 07:00:58;;;;;;;48.00;37.38;;;17.30;99.90;;;;;;5109856;28;20458;-80
2022/09/08 07:03:52;;;;;;;46.97;36.60;;;17.30;99.90;;;;;;5096818;28;20035;-80
2022/09/08 07:06:21;;;;;;;45.25;37.78;;;17.30;99.90;;;;;;5095850;28;20070;-80
2022/09/08 07:09:02;;;;;;;51.30;38.78;;;17.30;99.90;;;;;;5098342;28;20089;-80
2022/09/08 07:11:54;;;;;;;47.92;37.67;;;17.20;99.90;;;;;;5097229;28;20118;-80
2022/09/08 07:14:58;;;;;;;48.47;38.92;;;17.20;99.90;;;;;;5096051;28;20083;-80
2022/09/08 07:17:33;;;;;;;46.83;37.97;;;17.20;99.90;;;;;;5096326;28;20040;-81
2022/09/08 07:19:59;;;;;;;44.90;38.03;;;17.20;99.90;;;;;;5100962;28;20028;-81
2022/09/08 07:23:05;;;;;;;46.05;38.35;;;17.10;99.90;;;;;;5116744;28;20385;-81
2022/09/08 07:25:36;;;;;;;45.97;39.10;;;17.10;99.90;;;;;;5116516;28;20067;-81
2022/09/08 07:28:12;;;;;;;47.88;37.33;;;17.10;99.90;;;;;;5116356;28;20118;-81
2022/09/08 07:30:38;;;;;;;45.28;37.45;;;17.10;99.90;;;;;;5092423;28;20129;-81
2022/09/08 07:33:18;;;;;;;47.55;36.92;;;17.00;99.90;;;;;;5112160;28;20050;-80
2022/09/08 07:36:02;;;;;;;52.70;38.35;;;17.10;99.90;;;;;;5107238;28;20036;-80
2022/09/08 07:38:41;;;;;;;51.30;37.72;;;17.00;99.90;;;;;;5114834;28;20040;-80
2022/09/08 07:41:15;;;;;;;51.92;37.60;;;17.00;99.90;;;;;;5099744;28;20036;-80
2022/09/08 07:43:41;;;;;;;;;;;17.00;99.90;;;;;;5104035;28;20783;-81
2022/09/08 07:46:37;;;;;;;47.22;36.83;;;17.00;99.90;;;;;;5094730;28;19974;-80
2022/09/08 07:49:06;;;;;;;45.63;36.97;;;16.90;99.90;;;;;;5104185;28;20040;-81
2022/09/08 07:51:41;;;;;;;49.50;37.30;;;16.90;99.90;;;;;;5103547;28;20432;-80
2022/09/08 07:54:30;;;;;;;45.38;35.25;;;17.00;99.90;;;;;;5115746;28;20040;-79
2022/09/08 07:57:05;;;;;;;46.10;34.95;;;16.90;99.90;;;;;;5112454;28;20055;-80
2022/09/08 07:59:39;;;;;;;42.97;33.70;;;16.90;99.90;;;;;;5108083;28;20572;-80
2022/09/08 08:02:17;;;;;;;40.03;33.17;;;17.00;99.90;;;;;;5103378;28;20050;-80
2022/09/08 08:05:13;;;;;;;38.40;30.23;;;16.90;99.90;;;;;;5108626;28;20080;-79
2022/09/08 08:08:00;;;;;;;35.72;30.27;;;16.90;99.90;;;;;;5113688;28;20046;-79
2022/09/08 08:10:36;;;;;;;37.45;29.73;;;16.90;99.90;;;;;;5093166;28;20499;-79
2022/09/08 08:13:04;;;;;;;38.33;29.85;;;17.00;99.90;;;;;;5109406;28;20044;-79
2022/09/08 08:15:34;;;;;;;35.95;28.17;;;17.00;99.90;;;;;;5106811;28;20063;-79
2022/09/08 08:18:20;;;;;;;35.38;27.60;;;17.00;99.90;;;;;;5098324;28;20790;-80
2022/09/08 08:21:06;;;;;;;31.25;25.17;;;17.00;99.90;;;;;;5099922;28;20032;-80
2022/09/08 08:23:37;;;;;;;31.95;25.70;;;17.00;99.90;;;;;;5099347;28;20036;-80
2022/09/08 08:26:21;;;;;;;27.35;23.05;;;17.00;99.90;;;;;;5094280;28;20089;-80
2022/09/08 08:28:50;;;;;;;28.42;23.10;;;17.00;99.90;;;;;;5076869;28;20452;-80
2022/09/08 08:31:33;;;;;;;26.23;23.02;;;17.00;99.90;;;;;;5080173;28;20091;-80
2022/09/08 08:34:28;;;;;;;32.25;22.67;;;17.00;99.90;;;;;;5099027;28;20132;-79
2022/09/08 08:36:59;;;;;;;30.08;24.83;;;17.10;99.90;;;;;;5100000;28;20044;-79
2022/09/08 08:39:26;;;;;;;31.88;26.67;;;17.10;99.90;;;;;;5090099;28;20043;-80
2022/09/08 08:42:13;;;;;;;30.05;25.95;;;17.10;99.90;;;;;;5092999;28;20059;-79
2022/09/08 08:45:16;;;;;;;33.67;28.23;;;17.10;99.90;;;;;;5093784;28;20524;-79
2022/09/08 08:48:07;;;;;;;33.90;29.10;;;17.10;99.90;;;;;;5101546;27;20078;-80
2022/09/08 08:51:26;;;;;;;34.92;29.48;;;17.10;99.90;;;;;;5103898;28;20497;-79
2022/09/08 08:54:11;;;;;;;38.38;31.13;;;17.20;99.90;;;;;;5048465;28;20044;-80
2022/09/08 08:56:51;;;;;;;38.38;32.30;;;17.20;99.90;;;;;;5109112;28;20063;-80
2022/09/08 08:59:41;;;;;;;42.30;32.38;;;17.20;99.90;;;;;;5103039;28;20038;-80
2022/09/08 09:02:38;;;;;;;42.20;32.03;;;17.30;99.90;;;;;;5091668;28;20100;-80
2022/09/08 09:05:24;;;;;;;38.58;30.48;;;17.30;99.90;;;;;;5111167;28;20040;-80
2022/09/08 09:08:08;;;;;;;34.45;30.15;;;17.30;99.90;;;;;;5100129;28;20050;-79
2022/09/08 09:11:03;;;;;;;32.15;27.05;;;17.40;99.90;;;;;;5105319;28;20032;-79
2022/09/08 09:13:50;;;;;;;27.02;23.40;;;17.40;99.90;;;;;;5097517;28;20075;-80
2022/09/08 09:16:40;;;;;;;27.75;23.65;;;17.40;99.90;;;;;;5095531;28;20074;-80
2022/09/08 09:19:49;;;;;;;26.70;21.73;;;17.50;99.90;;;;;;5104940;28;20083;-80
2022/09/08 09:22:53;;;;;;;18.98;16.67;;;17.50;99.90;;;;;;5104754;28;20067;-80
2022/09/08 09:25:36;;;;;;;18.77;16.65;;;17.60;99.90;;;;;;5089382;28;20047;-80
2022/09/08 09:28:38;;;;;;;16.65;14.85;;;17.70;99.90;;;;;;5095379;28;20044;-80
2022/09/08 09:31:31;;;;;;;17.35;15.05;;;17.70;99.90;;;;;;5096822;28;20035;-80
2022/09/08 09:34:42;;;;;;;16.45;13.50;;;17.80;99.90;;;;;;5106709;28;20188;-80
2022/09/08 09:37:17;;;;;;;14.52;12.40;;;17.70;99.90;;;;;;5058802;28;20075;-80
2022/09/08 09:40:08;;;;;;;19.23;12.98;;;17.70;99.90;;;;;;5107034;28;20031;-80
2022/09/08 09:43:03;;;;;;;14.50;13.00;;;17.70;99.90;;;;;;5107408;28;20043;-80
2022/09/08 09:46:12;;;;;;;14.20;12.63;;;17.70;99.90;;;;;;5087511;28;20050;-79
2022/09/08 09:49:01;;;;;;;15.82;13.27;;;17.70;99.90;;;;;;5094527;28;20036;-79
2022/09/08 09:51:33;;;;;;;15.52;13.60;;;17.70;99.90;;;;;;5100713;28;20036;-79
2022/09/08 09:54:07;;;;;;;15.45;13.85;;;17.70;99.90;;;;;;5103083;28;20050;-79
2022/09/08 09:57:12;;;;;;;14.98;12.70;;;17.80;99.90;;;;;;5098307;28;20028;-80
2022/09/08 10:00:11;;;;;;;14.63;12.88;;;17.80;99.90;;;;;;5093991;28;20040;-79
2022/09/08 10:03:11;;;;;;;13.05;11.73;;;17.80;99.90;;;;;;5089158;28;20028;-79
2022/09/08 10:05:43;;;;;;;11.13;9.63;;;17.90;99.90;;;;;;5098767;28;20102;-80
2022/09/08 10:08:36;;;;;;;10.50;9.35;;;17.90;99.90;;;;;;5107959;28;20066;-80
2022/09/08 10:11:37;;;;;;;10.23;8.73;;;17.90;99.90;;;;;;5083309;28;20070;-80
2022/09/08 10:14:25;;;;;;;9.02;8.10;;;18.00;99.90;;;;;;5087083;28;20039;-80
2022/09/08 10:17:23;;;;;;;9.18;8.27;;;18.00;99.90;;;;;;5100511;28;20051;-80
2022/09/08 10:20:04;;;;;;;9.18;7.55;;;18.10;99.90;;;;;;5083711;28;20039;-80
2022/09/08 10:23:16;;;;;;;7.90;6.65;;;18.10;99.90;;;;;;5103253;28;20031;-80
2022/09/08 10:25:58;;;;;;;7.07;6.38;;;18.20;99.90;;;;;;5103883;28;20046;-79
2022/09/08 10:28:49;;;;;;;7.90;6.05;;;18.10;99.90;;;;;;5098004;28;20032;-80
2022/09/08 10:31:42;;;;;;;6.53;5.18;;;18.10;99.90;;;;;;5095280;28;20046;-79
2022/09/08 10:34:27;;;;;;;7.18;4.97;;;18.10;99.90;;;;;;5074456;28;20102;-80
2022/09/08 10:37:10;;;;;;;6.40;4.32;;;18.20;99.90;;;;;;5098757;28;20165;-80
2022/09/08 10:40:00;;;;;;;5.15;4.05;;;18.00;99.90;;;;;;5100959;28;20062;-80
2022/09/08 10:42:28;;;;;;;6.65;3.95;;;17.80;99.90;;;;;;5108363;28;20504;-80
2022/09/08 10:45:30;;;;;;;6.45;4.28;;;17.80;99.90;;;;;;5110990;28;20032;-79
2022/09/08 10:48:14;;;;;;;5.68;3.67;;;17.70;99.90;;;;;;5111420;28;20047;-79
2022/09/08 10:51:18;;;;;;;4.43;4.00;;;17.60;99.90;;;;;;5103601;28;20047;-80
2022/09/08 10:53:52;;;;;;;6.38;3.97;;;17.60;99.90;;;;;;5099056;28;20066;-80
2022/09/08 10:56:27;;;;;;;6.60;4.07;;;17.50;99.90;;;;;;5098901;28;20869;-79
2022/09/08 10:59:37;;;;;;;4.28;3.80;;;17.50;99.90;;;;;;5093802;28;20501;-79
2022/09/08 11:02:13;;;;;;;5.32;3.90;;;17.50;99.90;;;;;;5084922;28;20089;-79
2022/09/08 11:04:47;;;;;;;4.70;3.80;;;17.40;99.90;;;;;;5096085;28;20488;-79
2022/09/08 11:07:39;;;;;;;4.28;3.15;;;17.50;99.90;;;;;;5101568;28;20039;-78
2022/09/08 11:10:39;;;;;;;5.32;3.38;;;17.50;99.90;;;;;;5116308;28;20071;-78
2022/09/08 11:13:24;;;;;;;5.22;2.63;;;17.60;99.90;;;;;;5095788;28;20043;-78
2022/09/08 11:16:31;;;;;;;3.28;2.28;;;17.50;99.90;;;;;;5103135;28;20043;-79
2022/09/08 11:19:35;;;;;;;3.38;2.00;;;17.60;99.90;;;;;;5100256;28;20085;-79
2022/09/08 11:22:35;;;;;;;2.87;1.90;;;17.60;99.90;;;;;;5063627;28;20044;-78
2022/09/08 11:25:42;;;;;;;3.15;1.80;;;17.60;99.90;;;;;;5096558;28;20040;-79
2022/09/08 11:28:17;;;;;;;4.22;1.75;;;17.60;99.90;;;;;;5086330;28;20040;-79
2022/09/08 11:31:08;;;;;;;4.97;1.92;;;17.60;99.90;;;;;;5092205;28;20460;-79
2022/09/08 11:33:50;;;;;;;4.43;1.67;;;17.50;99.90;;;;;;5100636;28;20039;-79
2022/09/08 11:36:45;;;;;;;3.60;1.70;;;17.50;99.90;;;;;;5086127;28;20067;-78
2022/09/08 11:39:45;;;;;;;3.55;1.70;;;17.60;99.90;;;;;;5090994;28;20028;-78
2022/09/08 11:42:29;;;;;;;3.38;1.77;;;17.60;99.90;;;;;;5108903;28;20556;-78
2022/09/08 11:45:28;;;;;;;2.30;1.70;;;17.60;99.90;;;;;;5087306;28;20078;-78
2022/09/08 11:48:25;;;;;;;3.67;1.70;;;17.60;99.90;;;;;;5088656;28;20070;-79
2022/09/08 11:51:03;;;;;;;5.05;2.13;;;17.50;99.90;;;;;;5103404;28;20053;-79
2022/09/08 11:54:00;;;;;;;4.00;1.80;;;17.50;99.90;;;;;;5094311;28;20546;-79
2022/09/08 11:57:05;;;;;;;3.75;2.10;;;17.50;99.90;;;;;;5092815;28;20051;-79
2022/09/08 11:59:37;;;;;;;;;;;17.60;99.90;;;;;;5108474;28;20032;-78
2022/09/08 12:02:27;;;;;;;3.08;1.80;;;17.60;99.90;;;;;;5115928;27;19915;-79
2022/09/08 12:05:19;;;;;;;4.32;2.22;;;17.60;99.90;;;;;;5105103;28;20485;-79
2022/09/08 12:08:25;;;;;;;7.75;2.13;;;17.60;99.90;;;;;;5095711;28;20230;-79
2022/09/08 12:10:54;;;;;;;3.42;1.80;;;17.60;99.90;;;;;;5097841;28;20039;-78
2022/09/08 12:13:41;;;;;;;4.25;1.95;;;17.60;99.90;;;;;;5103779;28;20722;-79
2022/09/08 12:16:27;;;;;;;4.35;1.88;;;17.60;99.90;;;;;;5078584;28;20119;-79
2022/09/08 12:19:23;;;;;;;3.80;1.85;;;17.60;99.90;;;;;;5100948;28;20040;-79
2022/09/08 12:22:00;;;;;;;4.60;1.83;;;17.60;99.90;;;;;;5104752;28;20042;-79
2022/09/08 12:24:25;;;;;;;3.72;1.95;;;17.70;99.90;;;;;;5087719;28;20040;-79
2022/09/08 12:27:01;;;;;;;2.92;1.60;;;17.70;99.90;;;;;;5084166;28;20044;-79
2022/09/08 12:29:55;;;;;;;4.32;1.73;;;17.80;99.90;;;;;;5094454;28;20035;-80
2022/09/08 12:32:46;;;;;;;4.28;1.70;;;17.80;99.90;;;;;;5098885;28;20405;-80
2022/09/08 12:35:30;;;;;;;2.83;1.85;;;17.80;99.90;;;;;;5110776;28;20067;-80
2022/09/08 12:37:59;;;;;;;;;;;17.80;99.90;;;;;;5087741;28;20047;-79
2022/09/08 12:40:53;;;;;;;3.17;2.15;;;17.90;99.90;;;;;;5112352;28;19919;-79
2022/09/08 12:43:32;;;;;;;5.38;2.10;;;17.90;99.90;;;;;;5104248;28;20036;-79
2022/09/08 12:46:53;;;;;;;4.18;2.22;;;17.90;99.90;;;;;;5103799;28;20054;-79
2022/09/08 12:50:06;;;;;;;5.25;2.47;;;17.90;99.90;;;;;;5090110;28;20048;-79
2022/09/08 12:52:59;;;;;;;5.70;2.45;;;17.90;99.90;;;;;;5067515;28;20048;-78
2022/09/08 12:55:40;;;;;;;2.50;2.00;;;17.90;99.90;;;;;;5100099;28;20084;-79
2022/09/08 12:58:06;;;;;;;3.40;2.28;;;18.00;99.90;;;;;;5101648;28;20036;-78
2022/09/08 13:00:46;;;;;;;3.63;2.30;;;18.00;99.90;;;;;;5101035;28;20038;-78
2022/09/08 13:03:27;;;;;;;7.05;2.42;;;18.10;99.90;;;;;;5111053;28;20044;-78
2022/09/08 13:06:30;;;;;;;3.33;2.40;;;18.10;99.90;;;;;;5106599;28;20519;-78
2022/09/08 13:09:26;;;;;;;6.80;2.90;;;18.10;99.90;;;;;;5102155;28;20047;-78
2022/09/08 13:12:01;;;;;;;4.25;3.00;;;18.10;99.90;;;;;;5087587;28;20048;-78
2022/09/08 13:14:51;;;;;;;6.32;3.00;;;18.20;99.90;;;;;;5104914;28;20039;-79
2022/09/08 13:17:27;;;;;;;6.53;2.58;;;18.20;99.90;;;;;;5102777;28;20073;-78
2022/09/08 13:20:19;;;;;;;4.75;3.28;;;18.20;99.90;;;;;;5094765;28;20071;-79
2022/09/08 13:23:05;;;;;;;5.70;3.60;;;18.20;99.90;;;;;;5097189;28;20035;-79
2022/09/08 13:25:42;;;;;;;4.40;3.50;;;18.30;99.90;;;;;;5098381;28;20069;-79